createdAt,value
2019-05-26T00:02:38.035Z,17.40
2019-05-26T00:05:32.564Z,17.40
2019-05-26T00:08:20.279Z,17.30
2019-05-26T00:11:02.677Z,17.40
2019-05-26T00:13:51.979Z,17.30
2019-05-26T00:16:33.923Z,17.10
2019-05-26T00:19:30.119Z,17.10
2019-05-26T00:22:25.449Z,17.10
2019-05-26T00:25:21.476Z,17.10
2019-05-26T00:28:16.897Z,17.00
2019-05-26T00:31:12.403Z,17.10
2019-05-26T00:34:01.427Z,16.90
2019-05-26T00:36:36.912Z,17.00
2019-05-26T00:39:26.022Z,17.00
2019-05-26T00:42:09.126Z,17.00
2019-05-26T00:45:05.036Z,17.10
2019-05-26T00:47:54.298Z,17.10
2019-05-26T00:50:29.770Z,16.80
2019-05-26T00:53:19.720Z,16.80
2019-05-26T00:56:01.407Z,16.80
2019-05-26T00:58:43.711Z,16.90
2019-05-26T01:01:26.102Z,16.90
2019-05-26T01:04:08.298Z,16.90
2019-05-26T01:06:57.271Z,17.00
2019-05-26T01:09:33.227Z,17.00
2019-05-26T01:12:21.972Z,17.00
2019-05-26T01:14:57.638Z,17.00
2019-05-26T01:17:46.206Z,17.00
2019-05-26T01:20:28.066Z,16.90
2019-05-26T01:23:09.834Z,17.00
2019-05-26T01:25:51.967Z,17.00
2019-05-26T01:28:33.547Z,17.00
2019-05-26T01:31:15.983Z,16.90
2019-05-26T01:33:57.406Z,16.90
2019-05-26T01:36:40.467Z,16.90
2019-05-26T01:39:23.656Z,16.90
2019-05-26T01:42:06.441Z,16.90
2019-05-26T01:44:54.854Z,16.90
2019-05-26T01:47:30.578Z,16.90
2019-05-26T01:50:19.034Z,16.90
2019-05-26T01:52:54.442Z,16.90
2019-05-26T01:55:43.070Z,17.00
2019-05-26T01:58:38.075Z,16.90
2019-05-26T02:01:33.214Z,16.90
2019-05-26T02:04:28.729Z,16.90
2019-05-26T02:07:17.439Z,16.90
2019-05-26T02:09:53.629Z,16.90
2019-05-26T02:12:42.611Z,16.80
2019-05-26T02:15:25.810Z,16.80
2019-05-26T02:18:21.239Z,16.70
2019-05-26T02:21:16.433Z,16.70
2019-05-26T02:24:05.461Z,16.70
2019-05-26T02:26:48.313Z,16.80
2019-05-26T02:29:43.979Z,16.70
2019-05-26T02:32:39.471Z,16.70
2019-05-26T02:35:29.649Z,16.60
2019-05-26T02:38:12.565Z,16.60
2019-05-26T02:40:54.628Z,16.60
2019-05-26T02:43:36.930Z,16.60
2019-05-26T02:46:19.283Z,16.60
2019-05-26T02:49:00.865Z,16.60
2019-05-26T02:51:43.017Z,16.60
2019-05-26T02:54:31.976Z,16.60
2019-05-26T02:57:27.497Z,16.60
2019-05-26T03:00:16.773Z,16.60
2019-05-26T03:02:59.632Z,16.60
2019-05-26T03:05:55.088Z,16.60
2019-05-26T03:08:50.557Z,16.60
2019-05-26T03:11:47.947Z,16.60
2019-05-26T03:14:44.959Z,16.50
2019-05-26T03:17:34.508Z,16.70
2019-05-26T03:20:11.146Z,16.80
2019-05-26T03:23:02.158Z,16.80
2019-05-26T03:25:39.146Z,16.70
2019-05-26T03:28:27.876Z,16.80
2019-05-26T03:31:11.166Z,16.70
2019-05-26T03:34:07.617Z,16.70
2019-05-26T03:36:57.657Z,16.70
2019-05-26T03:39:44.642Z,16.60
2019-05-26T03:42:22.303Z,16.70
2019-05-26T03:44:57.742Z,16.70
2019-05-26T03:47:47.713Z,16.70
2019-05-26T03:50:23.890Z,16.70
2019-05-26T03:53:12.761Z,16.70
2019-05-26T03:55:55.307Z,16.70
2019-05-26T03:58:50.973Z,16.70
2019-05-26T04:01:47.135Z,16.60
2019-05-26T04:04:42.591Z,16.60
2019-05-26T04:07:32.815Z,16.70
2019-05-26T04:10:09.586Z,16.70
2019-05-26T04:12:58.338Z,16.70
2019-05-26T04:15:41.094Z,16.70
2019-05-26T04:18:29.586Z,16.70
2019-05-26T04:21:05.506Z,16.70
2019-05-26T04:23:54.479Z,16.60
2019-05-26T04:26:30.672Z,16.60
2019-05-26T04:29:19.519Z,16.70
2019-05-26T04:31:55.339Z,16.70
2019-05-26T04:34:43.928Z,16.70
2019-05-26T04:37:26.489Z,16.60
2019-05-26T04:40:25.573Z,16.60
2019-05-26T04:43:00.002Z,16.60
2019-05-26T04:45:36.175Z,16.60
2019-05-26T04:48:24.568Z,16.60
2019-05-26T04:51:00.211Z,16.60
2019-05-26T04:53:49.995Z,16.60
2019-05-26T04:56:31.950Z,16.60
2019-05-26T04:59:20.773Z,16.60
2019-05-26T05:02:17.444Z,16.60
2019-05-26T05:05:06.106Z,16.70
2019-05-26T05:07:41.791Z,16.70
2019-05-26T05:10:41.857Z,16.70
2019-05-26T05:13:14.186Z,16.80
2019-05-26T05:16:10.159Z,16.80
2019-05-26T05:19:05.258Z,16.80
2019-05-26T05:21:53.677Z,16.80
2019-05-26T05:24:29.361Z,16.80
2019-05-26T05:27:18.255Z,16.80
2019-05-26T05:30:00.872Z,16.80
2019-05-26T05:32:49.148Z,16.80
2019-05-26T05:35:33.193Z,16.90
2019-05-26T05:38:29.171Z,16.90
2019-05-26T05:41:18.249Z,16.90
2019-05-26T05:43:53.469Z,16.90
2019-05-26T05:46:42.461Z,16.90
2019-05-26T05:49:18.231Z,17.00
2019-05-26T05:52:06.648Z,17.00
2019-05-26T05:54:42.034Z,17.00
2019-05-26T05:57:30.642Z,17.10
2019-05-26T06:00:13.584Z,17.10
2019-05-26T06:03:02.718Z,17.20
2019-05-26T06:05:44.994Z,17.20
2019-05-26T06:08:33.756Z,17.30
2019-05-26T06:11:17.394Z,17.30
2019-05-26T06:14:05.642Z,17.30
2019-05-26T06:16:48.206Z,17.30
2019-05-26T06:19:37.490Z,17.40
2019-05-26T06:22:19.587Z,17.40
2019-05-26T06:25:14.995Z,17.50
2019-05-26T06:28:17.317Z,17.50
2019-05-26T06:31:06.473Z,17.50
2019-05-26T06:33:48.903Z,17.60
2019-05-26T06:36:31.503Z,17.60
2019-05-26T06:39:20.891Z,17.60
2019-05-26T06:41:57.182Z,17.70
2019-05-26T06:44:53.599Z,17.70
2019-05-26T06:47:29.695Z,17.80
2019-05-26T06:50:12.689Z,17.80
2019-05-26T06:52:54.780Z,17.90
2019-05-26T06:55:37.009Z,17.90
2019-05-26T06:58:18.907Z,18.00
2019-05-26T07:01:01.506Z,18.00
2019-05-26T07:03:43.926Z,18.10
2019-05-26T07:06:25.611Z,18.20
2019-05-26T07:09:07.902Z,18.30
2019-05-26T07:12:00.172Z,18.40
2019-05-26T07:14:33.554Z,18.50
2019-05-26T07:17:21.849Z,18.50
2019-05-26T07:19:57.228Z,18.60
2019-05-26T07:22:46.028Z,18.70
2019-05-26T07:25:27.944Z,18.80
2019-05-26T07:28:16.949Z,18.90
2019-05-26T07:31:01.010Z,18.90
2019-05-26T07:33:42.741Z,19.10
2019-05-26T07:36:25.243Z,19.30
2019-05-26T07:39:07.042Z,19.20
2019-05-26T07:42:08.213Z,19.30
2019-05-26T07:44:33.762Z,19.40
2019-05-26T07:47:23.134Z,19.40
2019-05-26T07:49:58.749Z,19.50
2019-05-26T07:52:47.794Z,19.60
2019-05-26T07:55:23.290Z,20.00
2019-05-26T07:58:12.701Z,20.20
2019-05-26T08:00:48.321Z,20.00
2019-05-26T08:03:37.526Z,20.10
2019-05-26T08:06:14.682Z,20.20
2019-05-26T08:09:03.593Z,20.30
2019-05-26T08:11:39.398Z,20.30
2019-05-26T08:14:28.749Z,20.30
2019-05-26T08:17:04.166Z,20.40
2019-05-26T08:19:53.449Z,20.40
2019-05-26T08:22:36.277Z,20.40
2019-05-26T08:25:32.344Z,20.50
2019-05-26T08:28:26.959Z,20.50
2019-05-26T08:31:08.197Z,20.60
2019-05-26T08:33:57.033Z,20.50
2019-05-26T08:36:33.150Z,20.60
2019-05-26T08:39:21.914Z,20.60
2019-05-26T08:41:57.144Z,20.70
2019-05-26T08:44:45.571Z,20.70
2019-05-26T08:47:20.788Z,20.80
2019-05-26T08:50:09.012Z,20.90
2019-05-26T08:52:44.227Z,20.90
2019-05-26T08:55:32.774Z,21.00
2019-05-26T08:58:08.375Z,21.20
2019-05-26T09:00:56.888Z,21.30
2019-05-26T09:03:55.306Z,21.30
2019-05-26T09:06:44.162Z,21.40
2019-05-26T09:09:19.714Z,21.50
2019-05-26T09:12:08.794Z,21.60
2019-05-26T09:14:50.950Z,21.70
2019-05-26T09:17:40.319Z,21.80
2019-05-26T09:20:23.045Z,21.90
2019-05-26T09:23:11.299Z,22.00
2019-05-26T09:25:46.850Z,22.10
2019-05-26T09:28:42.364Z,22.20
2019-05-26T09:31:34.152Z,22.30
2019-05-26T09:34:08.825Z,22.40
2019-05-26T09:36:58.858Z,22.60
2019-05-26T09:39:36.143Z,22.60
2019-05-26T09:42:24.926Z,22.60
2019-05-26T09:45:02.227Z,22.60
2019-05-26T09:47:50.166Z,22.60
2019-05-26T09:50:32.079Z,22.50
2019-05-26T09:53:16.296Z,22.50
2019-05-26T09:56:00.402Z,22.60
2019-05-26T09:58:35.988Z,22.60
2019-05-26T10:01:25.600Z,22.90
2019-05-26T10:04:07.906Z,23.00
2019-05-26T10:06:53.376Z,22.90
2019-05-26T10:09:38.778Z,22.90
2019-05-26T10:12:20.956Z,22.90
2019-05-26T10:15:02.790Z,23.10
2019-05-26T10:17:44.987Z,23.10
2019-05-26T10:20:27.850Z,22.90
2019-05-26T10:23:10.370Z,22.80
2019-05-26T10:25:58.710Z,22.80
2019-05-26T10:28:47.945Z,23.00
2019-05-26T10:31:45.150Z,22.90
2019-05-26T10:34:27.040Z,22.80
2019-05-26T10:37:15.514Z,22.70
2019-05-26T10:39:52.362Z,22.60
2019-05-26T10:42:40.794Z,22.70
2019-05-26T10:45:17.702Z,22.70
2019-05-26T10:48:06.544Z,22.80
2019-05-26T10:50:42.405Z,22.80
2019-05-26T10:53:30.954Z,22.80
2019-05-26T10:56:07.258Z,22.90
2019-05-26T10:58:55.857Z,22.80
2019-05-26T11:01:32.353Z,22.80
2019-05-26T11:04:20.618Z,22.80
2019-05-26T11:07:15.361Z,22.90
2019-05-26T11:10:04.843Z,22.80
2019-05-26T11:12:47.205Z,22.80
2019-05-26T11:15:43.489Z,22.90
2019-05-26T11:18:38.356Z,22.70
2019-05-26T11:21:26.487Z,22.70
2019-05-26T11:24:01.823Z,22.60
2019-05-26T11:26:51.167Z,22.60
2019-05-26T11:29:33.537Z,22.60
2019-05-26T11:32:29.857Z,22.60
2019-05-26T11:35:21.104Z,22.60
2019-05-26T11:37:56.581Z,22.60
2019-05-26T11:40:46.419Z,22.70
2019-05-26T11:43:28.429Z,22.60
2019-05-26T11:46:17.379Z,22.70
2019-05-26T11:49:12.993Z,22.70
2019-05-26T11:52:02.127Z,22.80
2019-05-26T11:54:44.954Z,22.80
2019-05-26T11:57:40.155Z,22.90
2019-05-26T12:00:30.575Z,23.10
2019-05-26T12:03:13.569Z,23.20
2019-05-26T12:06:09.781Z,23.40
2019-05-26T12:09:05.277Z,23.50
2019-05-26T12:11:55.784Z,23.50
2019-05-26T12:14:34.814Z,23.50
2019-05-26T12:17:34.415Z,23.60
2019-05-26T12:20:30.589Z,23.50
2019-05-26T12:23:20.670Z,23.60
2019-05-26T12:25:56.567Z,23.50
2019-05-26T12:28:45.754Z,23.50
2019-05-26T12:31:22.877Z,23.50
2019-05-26T12:34:12.205Z,23.70
2019-05-26T12:37:00.434Z,23.60
2019-05-26T12:39:55.933Z,23.50
2019-05-26T12:42:45.938Z,23.40
2019-05-26T12:45:22.467Z,23.40
2019-05-26T12:48:11.558Z,23.50
2019-05-26T12:50:47.239Z,23.50
2019-05-26T12:53:36.275Z,23.40
2019-05-26T12:56:11.779Z,23.60
2019-05-26T12:58:53.885Z,23.50
2019-05-26T13:01:37.416Z,23.40
2019-05-26T13:04:19.399Z,23.50
2019-05-26T13:07:14.587Z,23.50
2019-05-26T13:10:09.730Z,23.50
2019-05-26T13:12:57.778Z,23.40
2019-05-26T13:15:33.147Z,23.40
2019-05-26T13:18:29.531Z,23.50
2019-05-26T13:21:12.252Z,23.50
2019-05-26T13:24:01.198Z,23.60
2019-05-26T13:26:36.599Z,23.60
2019-05-26T13:29:26.386Z,23.80
2019-05-26T13:32:08.924Z,24.00
2019-05-26T13:34:51.585Z,23.90
2019-05-26T13:37:47.820Z,23.90
2019-05-26T13:40:37.313Z,23.90
2019-05-26T13:43:13.062Z,23.80
2019-05-26T13:46:02.297Z,23.70
2019-05-26T13:48:38.384Z,23.80
2019-05-26T13:51:26.921Z,23.70
2019-05-26T13:54:10.006Z,23.70
2019-05-26T13:57:05.196Z,23.70
2019-05-26T13:59:53.034Z,23.60
2019-05-26T14:02:28.878Z,23.70
2019-05-26T14:05:18.456Z,23.60
2019-05-26T14:07:53.682Z,23.60
2019-05-26T14:10:43.762Z,23.60
2019-05-26T14:13:19.700Z,23.60
2019-05-26T14:16:09.950Z,23.70
2019-05-26T14:18:48.036Z,23.60
2019-05-26T14:21:37.329Z,23.60
2019-05-26T14:24:13.594Z,23.60
2019-05-26T14:27:01.763Z,23.80
2019-05-26T14:29:37.993Z,23.60
2019-05-26T14:32:27.004Z,23.60
2019-05-26T14:35:09.811Z,23.50
2019-05-26T14:37:52.084Z,23.50
2019-05-26T14:40:40.921Z,23.40
2019-05-26T14:43:23.399Z,23.30
2019-05-26T14:46:05.613Z,23.20
2019-05-26T14:48:47.006Z,23.20
2019-05-26T14:51:30.415Z,23.10
2019-05-26T14:54:12.562Z,23.30
2019-05-26T14:56:55.579Z,23.30
2019-05-26T14:59:37.931Z,23.20
2019-05-26T15:02:19.789Z,23.20
2019-05-26T15:05:01.998Z,23.20
2019-05-26T15:07:51.098Z,23.10
2019-05-26T15:10:26.747Z,23.00
2019-05-26T15:13:15.313Z,22.90
2019-05-26T15:15:51.229Z,22.90
2019-05-26T15:18:40.021Z,22.90
2019-05-26T15:21:22.343Z,22.80
2019-05-26T15:24:11.448Z,22.80
2019-05-26T15:26:54.391Z,22.80
2019-05-26T15:29:36.837Z,22.80
2019-05-26T15:32:19.071Z,22.70
2019-05-26T15:35:07.438Z,22.70
2019-05-26T15:37:43.582Z,22.70
2019-05-26T15:40:32.392Z,22.70
2019-05-26T15:43:11.165Z,22.60
2019-05-26T15:46:00.966Z,22.60
2019-05-26T15:48:42.623Z,22.60
2019-05-26T15:51:31.554Z,22.60
2019-05-26T15:54:07.589Z,22.60
2019-05-26T15:56:56.268Z,22.50
2019-05-26T15:59:31.958Z,22.50
2019-05-26T16:02:20.459Z,22.40
2019-05-26T16:04:58.828Z,22.50
2019-05-26T16:07:52.929Z,22.40
2019-05-26T16:10:48.471Z,22.40
2019-05-26T16:13:36.597Z,22.40
2019-05-26T16:16:18.983Z,22.50
2019-05-26T16:19:15.186Z,22.50
2019-05-26T16:22:10.615Z,22.40
2019-05-26T16:25:05.257Z,22.30
2019-05-26T16:28:01.850Z,22.30
2019-05-26T16:30:50.880Z,22.20
2019-05-26T16:33:39.243Z,22.30
2019-05-26T16:36:28.305Z,22.30
2019-05-26T16:39:04.914Z,22.30
2019-05-26T16:41:53.822Z,22.30
2019-05-26T16:44:30.041Z,22.30
2019-05-26T16:47:21.383Z,22.30
2019-05-26T16:50:04.219Z,22.40
2019-05-26T16:52:58.942Z,22.30
2019-05-26T16:55:55.954Z,22.30
2019-05-26T16:58:51.920Z,22.30
2019-05-26T17:01:41.956Z,22.30
2019-05-26T17:04:17.681Z,22.20
2019-05-26T17:07:06.189Z,22.20
2019-05-26T17:09:41.526Z,22.10
2019-05-26T17:12:30.407Z,22.10
2019-05-26T17:15:12.766Z,22.10
2019-05-26T17:18:07.894Z,22.10
2019-05-26T17:21:04.011Z,22.00
2019-05-26T17:23:59.932Z,22.10
2019-05-26T17:26:47.797Z,22.10
2019-05-26T17:29:23.262Z,22.10
2019-05-26T17:32:11.564Z,22.10
2019-05-26T17:34:55.544Z,22.00
2019-05-26T17:37:44.413Z,22.00
2019-05-26T17:40:20.068Z,21.90
2019-05-26T17:43:08.859Z,21.90
2019-05-26T17:45:51.026Z,21.80
2019-05-26T17:48:39.950Z,21.80
2019-05-26T17:51:28.627Z,21.80
2019-05-26T17:54:23.607Z,21.70
2019-05-26T17:57:18.775Z,21.80
2019-05-26T18:00:07.409Z,21.80
2019-05-26T18:02:43.430Z,21.70
2019-05-26T18:05:33.046Z,21.70
2019-05-26T18:08:09.069Z,21.70
2019-05-26T18:10:57.800Z,21.60
2019-05-26T18:13:39.424Z,21.60
2019-05-26T18:16:24.469Z,21.60
2019-05-26T18:19:06.818Z,21.50
2019-05-26T18:21:49.076Z,21.50
2019-05-26T18:24:55.081Z,21.60
2019-05-26T18:27:33.263Z,21.50
2019-05-26T18:30:10.859Z,21.30
2019-05-26T18:32:59.630Z,21.20
2019-05-26T18:35:41.816Z,21.00
2019-05-26T18:38:38.555Z,21.10
2019-05-26T18:41:27.260Z,21.00
2019-05-26T18:44:02.950Z,21.00
2019-05-26T18:46:53.509Z,20.90
2019-05-26T18:49:35.331Z,20.90
2019-05-26T18:52:31.596Z,20.90
2019-05-26T18:55:14.909Z,20.90
2019-05-26T18:58:04.054Z,20.90
2019-05-26T19:00:39.845Z,20.80
2019-05-26T19:03:28.100Z,20.80
2019-05-26T19:06:10.137Z,20.70
2019-05-26T19:08:58.423Z,20.70
2019-05-26T19:11:40.707Z,20.50
2019-05-26T19:14:23.008Z,20.50
2019-05-26T19:17:05.512Z,20.40
2019-05-26T19:19:48.349Z,20.40
2019-05-26T19:22:30.477Z,20.50
2019-05-26T19:25:25.605Z,20.40
2019-05-26T19:28:21.839Z,20.40
2019-05-26T19:31:16.300Z,20.30
2019-05-26T19:34:12.266Z,20.20
2019-05-26T19:37:08.821Z,20.30
2019-05-26T19:39:58.178Z,20.20
2019-05-26T19:42:41.190Z,20.10
2019-05-26T19:45:36.629Z,20.20
2019-05-26T19:48:35.653Z,20.20
2019-05-26T19:51:03.171Z,20.10
2019-05-26T19:53:51.614Z,20.10
2019-05-26T19:56:33.738Z,20.00
2019-05-26T19:59:30.072Z,20.00
2019-05-26T20:02:25.162Z,20.00
2019-05-26T20:05:21.906Z,20.00
2019-05-26T20:08:18.412Z,20.00
2019-05-26T20:11:06.944Z,19.90
2019-05-26T20:13:43.249Z,19.90
2019-05-26T20:16:31.295Z,19.90
2019-05-26T20:19:07.608Z,19.90
2019-05-26T20:21:56.673Z,19.90
2019-05-26T20:24:38.819Z,19.90
2019-05-26T20:27:35.123Z,19.90
2019-05-26T20:30:30.111Z,20.00
2019-05-26T20:33:26.617Z,20.00
2019-05-26T20:36:22.543Z,20.00
2019-05-26T20:39:20.427Z,20.00
2019-05-26T20:42:10.084Z,20.10
2019-05-26T20:44:59.248Z,20.10
2019-05-26T20:47:35.081Z,20.10
2019-05-26T20:50:30.604Z,20.10
2019-05-26T20:53:26.867Z,20.10
2019-05-26T20:56:22.714Z,20.10
2019-05-26T20:59:03.950Z,20.10
2019-05-26T21:01:53.019Z,20.10
2019-05-26T21:04:48.399Z,20.10
2019-05-26T21:07:44.024Z,20.10
2019-05-26T21:10:33.136Z,20.10
2019-05-26T21:13:08.404Z,20.10
2019-05-26T21:15:57.079Z,20.10
2019-05-26T21:18:39.839Z,20.20
2019-05-26T21:21:34.560Z,20.10
2019-05-26T21:24:29.733Z,20.10
2019-05-26T21:27:26.062Z,20.10
2019-05-26T21:30:14.477Z,20.10
2019-05-26T21:32:50.586Z,20.10
2019-05-26T21:35:39.651Z,20.10
2019-05-26T21:38:15.809Z,20.10
2019-05-26T21:41:05.682Z,20.10
2019-05-26T21:43:41.424Z,20.10
2019-05-26T21:46:30.719Z,20.10
2019-05-26T21:49:06.529Z,20.00
2019-05-26T21:51:55.589Z,20.00
2019-05-26T21:54:41.083Z,20.10
2019-05-26T21:57:28.062Z,20.10
2019-05-26T22:00:09.907Z,20.00
2019-05-26T22:03:07.301Z,20.00
2019-05-26T22:05:56.063Z,20.00
2019-05-26T22:08:31.897Z,20.00
2019-05-26T22:11:20.421Z,19.90
2019-05-26T22:13:59.192Z,19.90
2019-05-26T22:16:48.196Z,19.90
2019-05-26T22:19:23.716Z,19.90
2019-05-26T22:22:12.152Z,19.80
2019-05-26T22:24:48.318Z,19.80
2019-05-26T22:27:36.490Z,19.70
2019-05-26T22:30:21.874Z,19.70
2019-05-26T22:33:16.621Z,19.70
2019-05-26T22:36:11.769Z,19.60
2019-05-26T22:39:06.813Z,19.60
2019-05-26T22:42:02.648Z,19.50
2019-05-26T22:44:51.128Z,19.50
2019-05-26T22:47:33.287Z,19.40
2019-05-26T22:50:15.466Z,19.40
2019-05-26T22:53:04.754Z,19.40
2019-05-26T22:55:40.718Z,19.30
2019-05-26T22:58:29.246Z,19.20
2019-05-26T23:01:11.372Z,19.20
2019-05-26T23:03:53.942Z,19.10
2019-05-26T23:06:37.018Z,19.20
2019-05-26T23:09:25.583Z,19.10
2019-05-26T23:12:06.998Z,19.10
2019-05-26T23:14:55.544Z,19.10
2019-05-26T23:17:30.921Z,19.10
2019-05-26T23:20:19.820Z,19.10
2019-05-26T23:23:02.043Z,19.00
2019-05-26T23:25:51.252Z,19.00
2019-05-26T23:28:39.609Z,19.00
2019-05-26T23:31:28.172Z,19.00
2019-05-26T23:34:10.562Z,18.90
2019-05-26T23:36:53.554Z,18.90
2019-05-26T23:39:49.100Z,18.90
2019-05-26T23:42:36.938Z,18.90
2019-05-26T23:45:13.077Z,18.90
2019-05-26T23:48:02.108Z,18.90
2019-05-26T23:50:38.066Z,18.80
2019-05-26T23:53:27.096Z,18.70
2019-05-26T23:56:02.647Z,18.70
2019-05-26T23:58:51.501Z,18.60
